QFA442 YMML-YSSY
Flight info
| Callsign | QFA442 |
|---|---|
| Flight time | 1h 4m |
| Altitude | 35000 |
| Route | DOSEL Y59 RIVET |
| Aircraft | B738/M-SDE2E3FGHIRWXY/LB1 |
Departure
| Time | 2026-04-22 02:14 |
|---|---|
| Airport | Melbourne Airport (YMML) |
Arrival
| Time | 2026-04-22 03:19 |
|---|---|
| Airport | Sydney Kingsford Smith International Airport (YSSY) |
| Time | Latitude | Longitude | Altitude | Speed | Heading |
|---|---|---|---|---|---|
| 2026-04-22 01:32 | -37.66828 | 144.85022 | 397 ft | 0 kts | 261° |
| 2026-04-22 02:02 | -37.66826 | 144.85032 | 397 ft | 4 kts | 261° |
| 2026-04-22 02:03 | -37.66821 | 144.85064 | 397 ft | 4 kts | 246° |
| 2026-04-22 02:03 | -37.66807 | 144.85086 | 397 ft | 4 kts | 186° |
| 2026-04-22 02:03 | -37.66782 | 144.85088 | 395 ft | 4 kts | 182° |
| 2026-04-22 02:03 | -37.66755 | 144.85089 | 396 ft | 4 kts | 178° |
| 2026-04-22 02:04 | -37.66701 | 144.85081 | 398 ft | 4 kts | 172° |
| 2026-04-22 02:04 | -37.66675 | 144.85076 | 398 ft | 4 kts | 171° |
| 2026-04-22 02:04 | -37.66648 | 144.85071 | 400 ft | 4 kts | 171° |
| 2026-04-22 02:05 | -37.66627 | 144.85068 | 399 ft | 4 kts | 182° |
| 2026-04-22 02:05 | -37.66603 | 144.85076 | 402 ft | 4 kts | 225° |
| 2026-04-22 02:05 | -37.66591 | 144.85104 | 400 ft | 4 kts | 258° |
| 2026-04-22 02:05 | -37.66587 | 144.85137 | 401 ft | 3 kts | 262° |
| 2026-04-22 02:06 | -37.66587 | 144.85140 | 401 ft | 1 kts | 261° |
| 2026-04-22 02:10 | -37.66588 | 144.85133 | 401 ft | 3 kts | 262° |
| 2026-04-22 02:10 | -37.66581 | 144.85084 | 402 ft | 10 kts | 297° |
| 2026-04-22 02:10 | -37.66532 | 144.85004 | 405 ft | 13 kts | 273° |
| 2026-04-22 02:10 | -37.66545 | 144.84880 | 405 ft | 16 kts | 261° |
| 2026-04-22 02:11 | -37.66620 | 144.84767 | 400 ft | 18 kts | 233° |
| 2026-04-22 02:11 | -37.66653 | 144.84602 | 399 ft | 21 kts | 264° |
| 2026-04-22 02:11 | -37.66676 | 144.84411 | 397 ft | 23 kts | 258° |
| 2026-04-22 02:11 | -37.66700 | 144.84203 | 395 ft | 25 kts | 264° |
| 2026-04-22 02:12 | -37.66735 | 144.84010 | 393 ft | 20 kts | 231° |
| 2026-04-22 02:12 | -37.66885 | 144.84002 | 388 ft | 25 kts | 172° |
| 2026-04-22 02:12 | -37.67053 | 144.84034 | 383 ft | 22 kts | 172° |
| 2026-04-22 02:12 | -37.67220 | 144.84067 | 378 ft | 26 kts | 165° |
| 2026-04-22 02:13 | -37.67412 | 144.84100 | 373 ft | 30 kts | 172° |
| 2026-04-22 02:13 | -37.67629 | 144.84140 | 368 ft | 31 kts | 171° |
| 2026-04-22 02:13 | -37.67785 | 144.84170 | 365 ft | 23 kts | 173° |
| 2026-04-22 02:13 | -37.67883 | 144.84048 | 357 ft | 25 kts | 272° |
| 2026-04-22 02:14 | -37.67792 | 144.83953 | 357 ft | 21 kts | 353° |
| 2026-04-22 02:14 | -37.67399 | 144.83881 | 369 ft | 95 kts | 351° |
| 2026-04-22 02:14 | -37.66542 | 144.83719 | 516 ft | 144 kts | 354° |
| 2026-04-22 02:14 | -37.65519 | 144.83548 | 1264 ft | 149 kts | 353° |
| 2026-04-22 02:15 | -37.64521 | 144.83366 | 2101 ft | 152 kts | 350° |
| 2026-04-22 02:15 | -37.63379 | 144.83164 | 2376 ft | 180 kts | 349° |
| 2026-04-22 02:15 | -37.62080 | 144.82887 | 2676 ft | 198 kts | 346° |
| 2026-04-22 02:15 | -37.60643 | 144.82578 | 2893 ft | 216 kts | 348° |
| 2026-04-22 02:16 | -37.59082 | 144.82528 | 3173 ft | 241 kts | 8° |
| 2026-04-22 02:16 | -37.57433 | 144.83207 | 3723 ft | 257 kts | 19° |
| 2026-04-22 02:16 | -37.55812 | 144.84200 | 4454 ft | 262 kts | 25° |
| 2026-04-22 02:16 | -37.54177 | 144.85254 | 5165 ft | 267 kts | 24° |
| 2026-04-22 02:17 | -37.52499 | 144.86286 | 5881 ft | 270 kts | 24° |
| 2026-04-22 02:17 | -37.50799 | 144.87315 | 6653 ft | 272 kts | 25° |
| 2026-04-22 02:17 | -37.49086 | 144.88373 | 7397 ft | 275 kts | 26° |
| 2026-04-22 02:17 | -37.47360 | 144.89422 | 8171 ft | 277 kts | 26° |
| 2026-04-22 02:18 | -37.45618 | 144.90478 | 8996 ft | 279 kts | 26° |
| 2026-04-22 02:18 | -37.43897 | 144.91627 | 9801 ft | 282 kts | 37° |
| 2026-04-22 02:18 | -37.42571 | 144.93459 | 10453 ft | 291 kts | 53° |
| 2026-04-22 02:18 | -37.41336 | 144.95615 | 10631 ft | 316 kts | 54° |
| 2026-04-22 02:19 | -37.40030 | 144.97963 | 10797 ft | 339 kts | 54° |
| 2026-04-22 02:19 | -37.38647 | 145.00456 | 11191 ft | 353 kts | 54° |
| 2026-04-22 02:19 | -37.37220 | 145.03016 | 11753 ft | 361 kts | 54° |
| 2026-04-22 02:19 | -37.35771 | 145.05601 | 12467 ft | 364 kts | 54° |
| 2026-04-22 02:20 | -37.34303 | 145.08208 | 13194 ft | 368 kts | 54° |
| 2026-04-22 02:20 | -37.32809 | 145.10850 | 13885 ft | 373 kts | 54° |
| 2026-04-22 02:20 | -37.31289 | 145.13533 | 14338 ft | 385 kts | 54° |
| 2026-04-22 02:20 | -37.29698 | 145.16336 | 14477 ft | 403 kts | 54° |
| 2026-04-22 02:21 | -37.28052 | 145.19233 | 14892 ft | 411 kts | 54° |
| 2026-04-22 02:21 | -37.26382 | 145.22168 | 15471 ft | 414 kts | 54° |
| 2026-04-22 02:21 | -37.24704 | 145.25116 | 16103 ft | 417 kts | 54° |
| 2026-04-22 02:21 | -37.23011 | 145.28090 | 16703 ft | 420 kts | 54° |
| 2026-04-22 02:22 | -37.21304 | 145.31084 | 17274 ft | 424 kts | 54° |
| 2026-04-22 02:22 | -37.19583 | 145.34102 | 17834 ft | 428 kts | 54° |
| 2026-04-22 02:22 | -37.17841 | 145.37152 | 18373 ft | 431 kts | 54° |
| 2026-04-22 02:22 | -37.16087 | 145.40217 | 18866 ft | 435 kts | 54° |
| 2026-04-22 02:23 | -37.14312 | 145.43316 | 19340 ft | 438 kts | 54° |
| 2026-04-22 02:23 | -37.12532 | 145.46421 | 19823 ft | 441 kts | 54° |
| 2026-04-22 02:23 | -37.10733 | 145.49554 | 20306 ft | 444 kts | 54° |
| 2026-04-22 02:23 | -37.08919 | 145.52711 | 20788 ft | 447 kts | 54° |
| 2026-04-22 02:24 | -37.07104 | 145.55869 | 21277 ft | 449 kts | 54° |
| 2026-04-22 02:24 | -37.05271 | 145.59056 | 21737 ft | 452 kts | 54° |
| 2026-04-22 02:24 | -37.03430 | 145.62254 | 22174 ft | 455 kts | 54° |
| 2026-04-22 02:24 | -37.01575 | 145.65473 | 22591 ft | 458 kts | 54° |
| 2026-04-22 02:25 | -36.99704 | 145.68716 | 22992 ft | 461 kts | 54° |
| 2026-04-22 02:25 | -36.97821 | 145.71979 | 23382 ft | 464 kts | 54° |
| 2026-04-22 02:25 | -36.95929 | 145.75253 | 23776 ft | 466 kts | 54° |
| 2026-04-22 02:25 | -36.94020 | 145.78551 | 24131 ft | 469 kts | 53° |
| 2026-04-22 02:26 | -36.92103 | 145.81863 | 24463 ft | 471 kts | 53° |
| 2026-04-22 02:26 | -36.90179 | 145.85182 | 24776 ft | 474 kts | 53° |
| 2026-04-22 02:26 | -36.88238 | 145.88527 | 25064 ft | 476 kts | 53° |
| 2026-04-22 02:26 | -36.86285 | 145.91889 | 25320 ft | 480 kts | 53° |
| 2026-04-22 02:27 | -36.84317 | 145.95275 | 25599 ft | 483 kts | 53° |
| 2026-04-22 02:27 | -36.82343 | 145.98668 | 25893 ft | 485 kts | 53° |
| 2026-04-22 02:27 | -36.80353 | 146.02083 | 26195 ft | 487 kts | 53° |
| 2026-04-22 02:27 | -36.78375 | 146.05477 | 26771 ft | 482 kts | 53° |
| 2026-04-22 02:28 | -36.76408 | 146.08847 | 27297 ft | 479 kts | 53° |
| 2026-04-22 02:28 | -36.74446 | 146.12205 | 27709 ft | 479 kts | 53° |
| 2026-04-22 02:28 | -36.72484 | 146.15560 | 28096 ft | 480 kts | 53° |
| 2026-04-22 02:28 | -36.70517 | 146.18919 | 28518 ft | 479 kts | 53° |
| 2026-04-22 02:29 | -36.68553 | 146.22271 | 28974 ft | 478 kts | 53° |
| 2026-04-22 02:29 | -36.66593 | 146.25612 | 29420 ft | 478 kts | 53° |
| 2026-04-22 02:29 | -36.64630 | 146.28956 | 29842 ft | 478 kts | 53° |
| 2026-04-22 02:29 | -36.62669 | 146.32293 | 30276 ft | 477 kts | 53° |
| 2026-04-22 02:30 | -36.60729 | 146.35643 | 30668 ft | 477 kts | 54° |
| 2026-04-22 02:30 | -36.58746 | 146.38964 | 30951 ft | 478 kts | 52° |
| 2026-04-22 02:30 | -36.56801 | 146.42322 | 31258 ft | 479 kts | 53° |
| 2026-04-22 02:30 | -36.54818 | 146.45647 | 31607 ft | 478 kts | 52° |
| 2026-04-22 02:31 | -36.52834 | 146.48966 | 31972 ft | 478 kts | 53° |
| 2026-04-22 02:31 | -36.50862 | 146.52289 | 32317 ft | 477 kts | 53° |
| 2026-04-22 02:31 | -36.48897 | 146.55611 | 32632 ft | 478 kts | 53° |
| 2026-04-22 02:31 | -36.46928 | 146.58943 | 32919 ft | 479 kts | 53° |
| 2026-04-22 02:32 | -36.44950 | 146.62286 | 33222 ft | 480 kts | 53° |
| 2026-04-22 02:32 | -36.42974 | 146.65620 | 33571 ft | 479 kts | 53° |
| 2026-04-22 02:32 | -36.40997 | 146.68951 | 33878 ft | 480 kts | 53° |
| 2026-04-22 02:32 | -36.39015 | 146.72284 | 34154 ft | 481 kts | 53° |
| 2026-04-22 02:33 | -36.37026 | 146.75626 | 34407 ft | 482 kts | 53° |
| 2026-04-22 02:33 | -36.35033 | 146.78970 | 34673 ft | 482 kts | 52° |
| 2026-04-22 02:33 | -36.33038 | 146.82314 | 34939 ft | 482 kts | 52° |
| 2026-04-22 02:33 | -36.31047 | 146.85651 | 35221 ft | 481 kts | 53° |
| 2026-04-22 02:34 | -36.29053 | 146.88988 | 35463 ft | 482 kts | 53° |
| 2026-04-22 02:34 | -36.27054 | 146.92330 | 35719 ft | 482 kts | 52° |
| 2026-04-22 02:34 | -36.25059 | 146.95662 | 36007 ft | 481 kts | 52° |
| 2026-04-22 02:34 | -36.23067 | 146.98987 | 36295 ft | 480 kts | 52° |
| 2026-04-22 02:35 | -36.21078 | 147.02305 | 36534 ft | 480 kts | 52° |
| 2026-04-22 02:35 | -36.19082 | 147.05630 | 36729 ft | 482 kts | 52° |
| 2026-04-22 02:35 | -36.17080 | 147.08959 | 36953 ft | 482 kts | 52° |
| 2026-04-22 02:35 | -36.15081 | 147.12281 | 37254 ft | 481 kts | 52° |
| 2026-04-22 02:36 | -36.13084 | 147.15596 | 37482 ft | 481 kts | 52° |
| 2026-04-22 02:36 | -36.11057 | 147.18961 | 37699 ft | 481 kts | 52° |
| 2026-04-22 02:36 | -36.09083 | 147.22233 | 37933 ft | 481 kts | 52° |
| 2026-04-22 02:36 | -36.07084 | 147.25545 | 38175 ft | 481 kts | 52° |
| 2026-04-22 02:37 | -36.05083 | 147.28857 | 38375 ft | 481 kts | 52° |
| 2026-04-22 02:37 | -36.03082 | 147.32168 | 38599 ft | 481 kts | 52° |
| 2026-04-22 02:37 | -36.01052 | 147.35520 | 38854 ft | 480 kts | 52° |
| 2026-04-22 02:37 | -35.99058 | 147.38813 | 39089 ft | 480 kts | 52° |
| 2026-04-22 02:38 | -35.97053 | 147.42043 | 39207 ft | 480 kts | 52° |
| 2026-04-22 02:38 | -35.95042 | 147.45411 | 39308 ft | 481 kts | 51° |
| 2026-04-22 02:38 | -35.93040 | 147.48728 | 39363 ft | 483 kts | 53° |
| 2026-04-22 02:39 | -35.89043 | 147.55321 | 39348 ft | 482 kts | 52° |
| 2026-04-22 02:39 | -35.84992 | 147.61943 | 39342 ft | 479 kts | 52° |
| 2026-04-22 02:40 | -35.80989 | 147.68492 | 39349 ft | 477 kts | 52° |
| 2026-04-22 02:40 | -35.77018 | 147.74974 | 39339 ft | 476 kts | 52° |
| 2026-04-22 02:41 | -35.73027 | 147.81481 | 39349 ft | 476 kts | 52° |
| 2026-04-22 02:41 | -35.69014 | 147.88011 | 39354 ft | 481 kts | 52° |
| 2026-04-22 02:42 | -35.64923 | 147.94656 | 39350 ft | 486 kts | 52° |
| 2026-04-22 02:42 | -35.60823 | 148.01304 | 39352 ft | 490 kts | 52° |
| 2026-04-22 02:43 | -35.56690 | 148.07992 | 39342 ft | 492 kts | 52° |
| 2026-04-22 02:43 | -35.52551 | 148.14678 | 39342 ft | 492 kts | 52° |
| 2026-04-22 02:44 | -35.48435 | 148.21313 | 39349 ft | 491 kts | 52° |
| 2026-04-22 02:44 | -35.44297 | 148.27974 | 39341 ft | 490 kts | 52° |
| 2026-04-22 02:45 | -35.40173 | 148.34589 | 39335 ft | 486 kts | 52° |
| 2026-04-22 02:45 | -35.36064 | 148.41157 | 39342 ft | 486 kts | 52° |
| 2026-04-22 02:46 | -35.31927 | 148.47760 | 39361 ft | 490 kts | 52° |
| 2026-04-22 02:46 | -35.28437 | 148.53322 | 39354 ft | 492 kts | 52° |
| 2026-04-22 02:47 | -35.24268 | 148.59959 | 39347 ft | 491 kts | 52° |
| 2026-04-22 02:47 | -35.20104 | 148.66573 | 39339 ft | 490 kts | 52° |
| 2026-04-22 02:48 | -35.15935 | 148.73183 | 39354 ft | 492 kts | 52° |
| 2026-04-22 02:48 | -35.11750 | 148.79806 | 39357 ft | 493 kts | 52° |
| 2026-04-22 02:49 | -35.07550 | 148.86440 | 39359 ft | 494 kts | 52° |
| 2026-04-22 02:49 | -35.03335 | 148.93085 | 39346 ft | 495 kts | 52° |
| 2026-04-22 02:50 | -34.99114 | 148.99728 | 39349 ft | 496 kts | 52° |
| 2026-04-22 02:50 | -34.94886 | 149.06369 | 39361 ft | 496 kts | 52° |
| 2026-04-22 02:51 | -34.90647 | 149.13015 | 39176 ft | 499 kts | 52° |
| 2026-04-22 02:51 | -34.88506 | 149.16368 | 38593 ft | 501 kts | 52° |
| 2026-04-22 02:51 | -34.86376 | 149.19699 | 38027 ft | 498 kts | 52° |
| 2026-04-22 02:51 | -34.84251 | 149.23020 | 37430 ft | 496 kts | 52° |
| 2026-04-22 02:52 | -34.82133 | 149.26326 | 36825 ft | 495 kts | 52° |
| 2026-04-22 02:52 | -34.80015 | 149.29630 | 36232 ft | 494 kts | 53° |
| 2026-04-22 02:52 | -34.77898 | 149.32931 | 35570 ft | 495 kts | 53° |
| 2026-04-22 02:52 | -34.75776 | 149.36235 | 34893 ft | 496 kts | 53° |
| 2026-04-22 02:53 | -34.73705 | 149.39593 | 34202 ft | 497 kts | 58° |
| 2026-04-22 02:53 | -34.71988 | 149.43198 | 33688 ft | 491 kts | 64° |
| 2026-04-22 02:53 | -34.70409 | 149.46881 | 32936 ft | 491 kts | 65° |
| 2026-04-22 02:53 | -34.68857 | 149.50575 | 32219 ft | 491 kts | 65° |
| 2026-04-22 02:54 | -34.67299 | 149.54265 | 31453 ft | 492 kts | 65° |
| 2026-04-22 02:54 | -34.65717 | 149.57963 | 30671 ft | 493 kts | 64° |
| 2026-04-22 02:54 | -34.64123 | 149.61641 | 29777 ft | 494 kts | 64° |
| 2026-04-22 02:54 | -34.62541 | 149.65347 | 28815 ft | 493 kts | 65° |
| 2026-04-22 02:55 | -34.60947 | 149.69000 | 28224 ft | 486 kts | 65° |
| 2026-04-22 02:55 | -34.59371 | 149.72600 | 27629 ft | 479 kts | 64° |
| 2026-04-22 02:55 | -34.57786 | 149.76129 | 26989 ft | 474 kts | 64° |
| 2026-04-22 02:55 | -34.56223 | 149.79631 | 26371 ft | 469 kts | 64° |
| 2026-04-22 02:56 | -34.54692 | 149.83094 | 25759 ft | 464 kts | 65° |
| 2026-04-22 02:56 | -34.53182 | 149.86525 | 25163 ft | 459 kts | 65° |
| 2026-04-22 02:56 | -34.51688 | 149.89920 | 24588 ft | 454 kts | 65° |
| 2026-04-22 02:56 | -34.50215 | 149.93287 | 23979 ft | 450 kts | 66° |
| 2026-04-22 02:57 | -34.48753 | 149.96591 | 23655 ft | 439 kts | 65° |
| 2026-04-22 02:57 | -34.47292 | 149.99816 | 23067 ft | 433 kts | 65° |
| 2026-04-22 02:57 | -34.45870 | 150.03012 | 22457 ft | 429 kts | 65° |
| 2026-04-22 02:57 | -34.44472 | 150.06181 | 21876 ft | 424 kts | 65° |
| 2026-04-22 02:58 | -34.43092 | 150.09313 | 21298 ft | 419 kts | 65° |
| 2026-04-22 02:58 | -34.41722 | 150.12416 | 20717 ft | 415 kts | 65° |
| 2026-04-22 02:58 | -34.40369 | 150.15480 | 20163 ft | 411 kts | 65° |
| 2026-04-22 02:58 | -34.39034 | 150.18513 | 19601 ft | 407 kts | 65° |
| 2026-04-22 02:59 | -34.37671 | 150.21500 | 19036 ft | 403 kts | 65° |
| 2026-04-22 02:59 | -34.36342 | 150.24466 | 18456 ft | 399 kts | 65° |
| 2026-04-22 02:59 | -34.35041 | 150.27407 | 17842 ft | 394 kts | 65° |
| 2026-04-22 02:59 | -34.33754 | 150.30317 | 17272 ft | 390 kts | 65° |
| 2026-04-22 03:00 | -34.32480 | 150.33188 | 16699 ft | 385 kts | 65° |
| 2026-04-22 03:00 | -34.31221 | 150.36016 | 16175 ft | 380 kts | 65° |
| 2026-04-22 03:00 | -34.29972 | 150.38813 | 15637 ft | 376 kts | 65° |
| 2026-04-22 03:00 | -34.28733 | 150.41580 | 15106 ft | 372 kts | 65° |
| 2026-04-22 03:01 | -34.27506 | 150.44321 | 14627 ft | 368 kts | 64° |
| 2026-04-22 03:01 | -34.26293 | 150.47028 | 14146 ft | 364 kts | 64° |
| 2026-04-22 03:01 | -34.25095 | 150.49704 | 13579 ft | 361 kts | 64° |
| 2026-04-22 03:01 | -34.23901 | 150.52371 | 13027 ft | 358 kts | 64° |
| 2026-04-22 03:02 | -34.22722 | 150.55003 | 12506 ft | 355 kts | 64° |
| 2026-04-22 03:02 | -34.21550 | 150.57617 | 11978 ft | 352 kts | 64° |
| 2026-04-22 03:02 | -34.20388 | 150.60208 | 11463 ft | 349 kts | 64° |
| 2026-04-22 03:02 | -34.19236 | 150.62772 | 11128 ft | 342 kts | 64° |
| 2026-04-22 03:03 | -34.18120 | 150.65251 | 10971 ft | 330 kts | 64° |
| 2026-04-22 03:03 | -34.17032 | 150.67667 | 10591 ft | 327 kts | 64° |
| 2026-04-22 03:03 | -34.15962 | 150.70043 | 10369 ft | 318 kts | 64° |
| 2026-04-22 03:03 | -34.14923 | 150.72353 | 10246 ft | 307 kts | 64° |
| 2026-04-22 03:04 | -34.13922 | 150.74574 | 10144 ft | 296 kts | 64° |
| 2026-04-22 03:04 | -34.12949 | 150.76736 | 9886 ft | 291 kts | 65° |
| 2026-04-22 03:04 | -34.11994 | 150.78854 | 9618 ft | 286 kts | 65° |
| 2026-04-22 03:04 | -34.11041 | 150.80968 | 9246 ft | 286 kts | 64° |
| 2026-04-22 03:05 | -34.10095 | 150.83065 | 8951 ft | 283 kts | 65° |
| 2026-04-22 03:05 | -34.09163 | 150.85133 | 8726 ft | 278 kts | 65° |
| 2026-04-22 03:05 | -34.08247 | 150.87167 | 8514 ft | 275 kts | 65° |
| 2026-04-22 03:05 | -34.07336 | 150.89197 | 8314 ft | 277 kts | 65° |
| 2026-04-22 03:06 | -34.06417 | 150.91241 | 8098 ft | 276 kts | 65° |
| 2026-04-22 03:06 | -34.05508 | 150.93268 | 7919 ft | 274 kts | 65° |
| 2026-04-22 03:06 | -34.04603 | 150.95273 | 7702 ft | 272 kts | 64° |
| 2026-04-22 03:06 | -34.03694 | 150.97281 | 7382 ft | 274 kts | 64° |
| 2026-04-22 03:07 | -34.02683 | 150.99226 | 7028 ft | 277 kts | 50° |
| 2026-04-22 03:07 | -34.01095 | 151.00543 | 6722 ft | 281 kts | 22° |
| 2026-04-22 03:07 | -33.99158 | 151.00864 | 6297 ft | 287 kts | 356° |
| 2026-04-22 03:07 | -33.97201 | 151.00435 | 6012 ft | 284 kts | 348° |
| 2026-04-22 03:08 | -33.95263 | 150.99938 | 5676 ft | 285 kts | 348° |
| 2026-04-22 03:08 | -33.93339 | 150.99440 | 5404 ft | 282 kts | 348° |
| 2026-04-22 03:08 | -33.91422 | 150.98928 | 5116 ft | 280 kts | 348° |
| 2026-04-22 03:08 | -33.89524 | 150.98417 | 4797 ft | 280 kts | 348° |
| 2026-04-22 03:09 | -33.87618 | 150.97902 | 4424 ft | 281 kts | 348° |
| 2026-04-22 03:09 | -33.85723 | 150.97392 | 4127 ft | 280 kts | 348° |
| 2026-04-22 03:09 | -33.83818 | 150.96877 | 3807 ft | 280 kts | 347° |
| 2026-04-22 03:09 | -33.81935 | 150.96371 | 3588 ft | 275 kts | 348° |
| 2026-04-22 03:10 | -33.80056 | 150.95862 | 3237 ft | 277 kts | 347° |
| 2026-04-22 03:10 | -33.78188 | 150.95355 | 3026 ft | 276 kts | 348° |
| 2026-04-22 03:10 | -33.76315 | 150.94856 | 2994 ft | 275 kts | 349° |
| 2026-04-22 03:10 | -33.74436 | 150.94519 | 2967 ft | 274 kts | 4° |
| 2026-04-22 03:11 | -33.72635 | 150.95088 | 2965 ft | 264 kts | 32° |
| 2026-04-22 03:11 | -33.71365 | 150.96522 | 2974 ft | 242 kts | 63° |
| 2026-04-22 03:11 | -33.70830 | 150.98333 | 2988 ft | 224 kts | 80° |
| 2026-04-22 03:11 | -33.70523 | 151.00113 | 3007 ft | 208 kts | 82° |
| 2026-04-22 03:12 | -33.70244 | 151.01744 | 2966 ft | 191 kts | 86° |
| 2026-04-22 03:12 | -33.71146 | 151.04413 | 2997 ft | 178 kts | 132° |
| 2026-04-22 03:12 | -33.71946 | 151.05540 | 3004 ft | 176 kts | 134° |
| 2026-04-22 03:13 | -33.72711 | 151.06674 | 2964 ft | 172 kts | 132° |
| 2026-04-22 03:13 | -33.73451 | 151.07801 | 2996 ft | 173 kts | 132° |
| 2026-04-22 03:13 | -33.74225 | 151.08938 | 3004 ft | 179 kts | 132° |
| 2026-04-22 03:13 | -33.75023 | 151.10116 | 3007 ft | 183 kts | 132° |
| 2026-04-22 03:14 | -33.75813 | 151.11290 | 2986 ft | 179 kts | 133° |
| 2026-04-22 03:14 | -33.76592 | 151.12432 | 2976 ft | 173 kts | 137° |
| 2026-04-22 03:14 | -33.77631 | 151.13083 | 3010 ft | 173 kts | 167° |
| 2026-04-22 03:14 | -33.78827 | 151.13438 | 2892 ft | 179 kts | 167° |
| 2026-04-22 03:15 | -33.80039 | 151.13784 | 2641 ft | 177 kts | 167° |
| 2026-04-22 03:15 | -33.81186 | 151.14091 | 2434 ft | 162 kts | 168° |
| 2026-04-22 03:15 | -33.82251 | 151.14370 | 2211 ft | 155 kts | 168° |
| 2026-04-22 03:15 | -33.83289 | 151.14640 | 2002 ft | 148 kts | 168° |
| 2026-04-22 03:16 | -33.84257 | 151.14895 | 1810 ft | 137 kts | 167° |
| 2026-04-22 03:16 | -33.85149 | 151.15126 | 1642 ft | 130 kts | 168° |
| 2026-04-22 03:16 | -33.86050 | 151.15358 | 1475 ft | 137 kts | 168° |
| 2026-04-22 03:16 | -33.86973 | 151.15592 | 1280 ft | 132 kts | 167° |
| 2026-04-22 03:17 | -33.87851 | 151.15835 | 1116 ft | 131 kts | 167° |
| 2026-04-22 03:17 | -33.88767 | 151.16085 | 966 ft | 135 kts | 169° |
| 2026-04-22 03:17 | -33.89656 | 151.16299 | 730 ft | 129 kts | 168° |
| 2026-04-22 03:17 | -33.90538 | 151.16531 | 586 ft | 128 kts | 167° |
| 2026-04-22 03:18 | -33.91415 | 151.16760 | 394 ft | 134 kts | 168° |
| 2026-04-22 03:18 | -33.92315 | 151.16993 | 222 ft | 129 kts | 169° |
| 2026-04-22 03:18 | -33.93155 | 151.17215 | 36 ft | 118 kts | 168° |
| 2026-04-22 03:18 | -33.93806 | 151.17384 | 26 ft | 65 kts | 167° |
| 2026-04-22 03:19 | -33.94129 | 151.17471 | 26 ft | 42 kts | 167° |
| 2026-04-22 03:19 | -33.94377 | 151.17586 | 29 ft | 34 kts | 149° |
| 2026-04-22 03:19 | -33.94506 | 151.17710 | 29 ft | 15 kts | 123° |
| 2026-04-22 03:19 | -33.94464 | 151.17776 | 29 ft | 11 kts | 346° |
| 2026-04-22 03:20 | -33.94398 | 151.17755 | 29 ft | 12 kts | 345° |
| 2026-04-22 03:20 | -33.94313 | 151.17729 | 29 ft | 14 kts | 346° |
| 2026-04-22 03:20 | -33.94193 | 151.17693 | 28 ft | 24 kts | 345° |
| 2026-04-22 03:20 | -33.94006 | 151.17639 | 27 ft | 31 kts | 347° |
| 2026-04-22 03:21 | -33.93817 | 151.17588 | 28 ft | 21 kts | 349° |
| 2026-04-22 03:21 | -33.93661 | 151.17549 | 28 ft | 21 kts | 348° |
| 2026-04-22 03:21 | -33.93544 | 151.17518 | 28 ft | 17 kts | 346° |
| 2026-04-22 03:21 | -33.93418 | 151.17505 | 29 ft | 20 kts | 359° |
| 2026-04-22 03:22 | -33.93271 | 151.17475 | 29 ft | 23 kts | 348° |
| 2026-04-22 03:22 | -33.93103 | 151.17432 | 29 ft | 25 kts | 348° |
| 2026-04-22 03:22 | -33.92992 | 151.17438 | 29 ft | 12 kts | 52° |
| 2026-04-22 03:22 | -33.92997 | 151.17533 | 29 ft | 12 kts | 101° |
| 2026-04-22 03:23 | -33.93006 | 151.17597 | 29 ft | 12 kts | 100° |
| 2026-04-22 03:23 | -33.93025 | 151.17674 | 29 ft | 3 kts | 135° |
| 2026-04-22 03:23 | -33.93049 | 151.17680 | 29 ft | 5 kts | 185° |
| 2026-04-22 03:23 | -33.93087 | 151.17675 | 29 ft | 4 kts | 186° |
| 2026-04-22 03:24 | -33.93098 | 151.17673 | 29 ft | 0 kts | 187° |